createdAt,value
2023-04-13T00:00:29.205Z,96.20
2023-04-13T00:02:57.253Z,96.20
2023-04-13T00:05:25.176Z,96.20
2023-04-13T00:07:53.115Z,96.20
2023-04-13T00:10:21.073Z,96.20
2023-04-13T00:12:50.656Z,96.30
2023-04-13T00:15:20.189Z,96.20
2023-04-13T00:17:48.396Z,96.20
2023-04-13T00:20:16.298Z,96.20
2023-04-13T00:22:45.057Z,96.30
2023-04-13T00:25:14.213Z,96.20
2023-04-13T00:27:43.241Z,96.30
2023-04-13T00:30:14.066Z,96.20
2023-04-13T00:32:43.510Z,96.30
2023-04-13T00:35:12.681Z,96.30
2023-04-13T00:37:42.992Z,96.60
2023-04-13T00:40:12.214Z,96.30
2023-04-13T00:42:40.411Z,96.20
2023-04-13T00:45:09.474Z,96.30
2023-04-13T00:47:41.472Z,96.20
2023-04-13T00:50:09.876Z,96.20
2023-04-13T00:52:38.899Z,96.20
2023-04-13T00:55:07.776Z,96.20
2023-04-13T00:57:36.678Z,96.20
2023-04-13T01:00:09.117Z,96.20
2023-04-13T01:02:41.913Z,96.20
2023-04-13T01:05:12.256Z,96.10
2023-04-13T01:07:47.522Z,96.10
2023-04-13T01:10:20.916Z,96.10
2023-04-13T01:12:59.237Z,96.10
2023-04-13T01:15:29.461Z,96.10
2023-04-13T01:18:05.031Z,96.10
2023-04-13T01:20:34.380Z,96.10
2023-04-13T01:23:07.442Z,96.10
2023-04-13T01:25:40.354Z,96.10
2023-04-13T01:28:10.619Z,96.10
2023-04-13T01:30:39.843Z,96.10
2023-04-13T01:33:08.610Z,96.00
2023-04-13T01:35:36.728Z,96.00
2023-04-13T01:38:04.876Z,96.40
2023-04-13T01:40:34.804Z,96.10
2023-04-13T01:43:02.583Z,96.00
2023-04-13T01:45:45.951Z,96.00
2023-04-13T01:48:21.168Z,96.00
2023-04-13T01:50:55.363Z,96.00
2023-04-13T01:53:29.242Z,96.00
2023-04-13T01:55:58.003Z,96.00
2023-04-13T01:58:27.897Z,95.90
2023-04-13T02:00:57.177Z,95.90
2023-04-13T02:03:25.096Z,95.90
2023-04-13T02:05:53.177Z,95.90
2023-04-13T02:08:21.249Z,95.90
2023-04-13T02:10:49.016Z,95.90
2023-04-13T02:13:16.865Z,95.80
2023-04-13T02:15:44.675Z,95.80
2023-04-13T02:18:14.383Z,95.80
2023-04-13T02:20:45.812Z,95.80
2023-04-13T02:23:15.633Z,95.70
2023-04-13T02:25:47.589Z,95.80
2023-04-13T02:28:17.606Z,95.70
2023-04-13T02:30:45.744Z,95.70
2023-04-13T02:33:14.991Z,95.70
2023-04-13T02:35:42.776Z,95.70
2023-04-13T02:38:11.634Z,95.70
2023-04-13T02:40:39.510Z,95.70
2023-04-13T02:43:07.307Z,95.70
2023-04-13T02:45:35.104Z,95.60
2023-04-13T02:48:04.758Z,95.60
2023-04-13T02:50:33.936Z,95.60
2023-04-13T02:53:01.727Z,95.60
2023-04-13T02:55:29.466Z,95.60
2023-04-13T02:57:57.917Z,95.60
2023-04-13T03:00:26.116Z,95.60
2023-04-13T03:02:54.642Z,95.60
2023-04-13T03:05:23.600Z,95.60
2023-04-13T03:07:52.909Z,95.60
2023-04-13T03:10:21.741Z,95.70
2023-04-13T03:12:50.362Z,95.70
2023-04-13T03:15:18.888Z,95.60
2023-04-13T03:17:46.718Z,95.60
2023-04-13T03:20:16.541Z,95.70
2023-04-13T03:22:45.105Z,95.70
2023-04-13T03:25:14.335Z,95.70
2023-04-13T03:27:42.120Z,95.70
2023-04-13T03:30:11.165Z,95.70
2023-04-13T03:32:39.371Z,95.70
2023-04-13T03:35:07.601Z,95.70
2023-04-13T03:37:40.419Z,95.60
2023-04-13T03:40:10.711Z,95.70
2023-04-13T03:42:39.884Z,95.60
2023-04-13T03:45:08.454Z,96.00
2023-04-13T03:47:36.361Z,95.60
2023-04-13T03:50:04.726Z,95.70
2023-04-13T03:52:32.553Z,95.70
2023-04-13T03:55:00.424Z,95.60
2023-04-13T03:57:28.416Z,95.70
2023-04-13T03:59:57.606Z,95.60
2023-04-13T04:02:26.053Z,95.60
2023-04-13T04:04:54.028Z,95.70
2023-04-13T04:07:23.654Z,95.60
2023-04-13T04:09:51.546Z,95.70
2023-04-13T04:12:19.309Z,95.70
2023-04-13T04:14:47.088Z,95.70
2023-04-13T04:17:16.263Z,95.70
2023-04-13T04:19:44.063Z,95.70
2023-04-13T04:22:13.849Z,95.70
2023-04-13T04:24:42.327Z,95.70
2023-04-13T04:27:10.129Z,95.70
2023-04-13T04:29:38.122Z,95.70
2023-04-13T04:32:10.882Z,95.70
2023-04-13T04:34:41.018Z,95.70
2023-04-13T04:37:19.627Z,95.70
2023-04-13T04:39:48.720Z,95.70
2023-04-13T04:42:18.785Z,95.70
2023-04-13T04:44:49.938Z,95.80
2023-04-13T04:47:18.584Z,95.80
2023-04-13T04:49:47.795Z,95.80
2023-04-13T04:52:15.758Z,95.90
2023-04-13T04:54:43.725Z,95.90
2023-04-13T04:57:12.178Z,95.90
2023-04-13T04:59:40.785Z,96.00
2023-04-13T05:02:08.987Z,96.00
2023-04-13T05:04:37.150Z,96.10
2023-04-13T05:07:07.484Z,96.00
2023-04-13T05:09:36.959Z,96.10
2023-04-13T05:12:05.132Z,96.10
2023-04-13T05:14:32.936Z,96.10
2023-04-13T05:17:01.839Z,96.10
2023-04-13T05:19:29.621Z,96.40
2023-04-13T05:21:57.486Z,96.00
2023-04-13T05:24:27.076Z,96.10
2023-04-13T05:26:56.533Z,96.10
2023-04-13T05:29:24.312Z,96.10
2023-04-13T05:31:52.217Z,96.10
2023-04-13T05:34:20.275Z,96.10
2023-04-13T05:36:48.015Z,96.10
2023-04-13T05:39:16.035Z,96.10
2023-04-13T05:41:45.137Z,96.10
2023-04-13T05:44:12.878Z,96.10
2023-04-13T05:46:40.784Z,96.10
2023-04-13T05:49:09.219Z,96.10
2023-04-13T05:51:37.040Z,96.10
2023-04-13T05:54:05.536Z,96.10
2023-04-13T05:56:34.239Z,96.10
2023-04-13T05:59:04.163Z,96.10
2023-04-13T06:01:32.025Z,96.10
2023-04-13T06:04:00.664Z,96.10
2023-04-13T06:06:30.158Z,96.10
2023-04-13T06:08:58.324Z,96.10
2023-04-13T06:11:26.358Z,96.10
2023-04-13T06:13:54.205Z,96.10
2023-04-13T06:16:24.070Z,96.10
2023-04-13T06:18:51.935Z,96.00
2023-04-13T06:21:19.720Z,96.00
2023-04-13T06:23:47.827Z,96.00
2023-04-13T06:26:17.020Z,96.00
2023-04-13T06:28:44.875Z,96.00
2023-04-13T06:31:14.009Z,96.00
2023-04-13T06:33:43.301Z,96.00
2023-04-13T06:36:11.749Z,96.00
2023-04-13T06:38:39.494Z,96.00
2023-04-13T06:41:07.753Z,96.00
2023-04-13T06:43:35.740Z,96.00
2023-04-13T06:46:04.542Z,96.00
2023-04-13T06:48:32.405Z,96.00
2023-04-13T06:51:01.564Z,96.00
2023-04-13T06:53:29.403Z,96.10
2023-04-13T06:55:57.501Z,96.10
2023-04-13T06:58:25.342Z,96.10
2023-04-13T07:00:53.168Z,96.10
2023-04-13T07:03:21.027Z,96.20
2023-04-13T07:05:48.883Z,96.00
2023-04-13T07:08:19.182Z,96.10
2023-04-13T07:10:47.008Z,96.00
2023-04-13T07:13:14.804Z,96.10
2023-04-13T07:15:42.992Z,96.00
2023-04-13T07:18:10.788Z,96.00
2023-04-13T07:20:39.682Z,96.00
2023-04-13T07:23:08.854Z,95.90
2023-04-13T07:25:37.978Z,95.90
2023-04-13T07:28:06.000Z,95.90
2023-04-13T07:30:33.839Z,95.90
2023-04-13T07:33:01.689Z,95.90
2023-04-13T07:35:29.507Z,95.90
2023-04-13T07:37:57.240Z,95.90
2023-04-13T07:40:25.619Z,95.90
2023-04-13T07:42:54.758Z,95.90
2023-04-13T07:45:22.548Z,95.80
2023-04-13T07:47:52.584Z,95.80
2023-04-13T07:50:20.532Z,95.80
2023-04-13T07:52:48.337Z,95.80
2023-04-13T07:55:16.240Z,95.70
2023-04-13T07:57:43.964Z,95.80
2023-04-13T08:00:14.927Z,95.90
2023-04-13T08:02:43.146Z,95.80
2023-04-13T08:05:12.169Z,95.80
2023-04-13T08:07:40.061Z,95.70
2023-04-13T08:10:09.210Z,95.70
2023-04-13T08:12:37.196Z,95.70
2023-04-13T08:15:05.744Z,95.90
2023-04-13T08:17:34.962Z,95.70
2023-04-13T08:20:05.264Z,95.70
2023-04-13T08:22:33.012Z,95.70
2023-04-13T08:25:01.516Z,95.70
2023-04-13T08:27:29.272Z,95.70
2023-04-13T08:30:01.503Z,95.70
2023-04-13T08:32:29.373Z,95.80
2023-04-13T08:34:58.489Z,95.80
2023-04-13T08:37:28.891Z,95.80
2023-04-13T08:40:00.371Z,95.80
2023-04-13T08:42:29.116Z,95.80
2023-04-13T08:44:59.539Z,95.80
2023-04-13T08:47:29.057Z,95.80
2023-04-13T08:50:00.219Z,95.80
2023-04-13T08:52:28.753Z,95.80
2023-04-13T08:54:58.230Z,95.80
2023-04-13T08:57:26.205Z,95.80
2023-04-13T08:59:54.329Z,95.90
2023-04-13T09:02:26.075Z,95.90
2023-04-13T09:04:55.670Z,95.90
2023-04-13T09:07:27.716Z,95.90
2023-04-13T09:09:58.889Z,95.90
2023-04-13T09:12:26.720Z,96.00
2023-04-13T09:14:54.675Z,96.00
2023-04-13T09:17:27.022Z,96.10
2023-04-13T09:19:56.324Z,96.10
2023-04-13T09:22:25.905Z,96.10
2023-04-13T09:24:53.689Z,96.10
2023-04-13T09:27:23.140Z,96.10
2023-04-13T09:29:52.469Z,96.10
2023-04-13T09:32:21.514Z,96.00
2023-04-13T09:34:59.227Z,96.10
2023-04-13T09:37:29.220Z,96.10
2023-04-13T09:39:57.034Z,96.10
2023-04-13T09:42:24.771Z,96.10
2023-04-13T09:44:59.054Z,96.10
2023-04-13T09:47:36.635Z,96.10
2023-04-13T09:50:05.546Z,96.20
2023-04-13T09:52:34.690Z,96.20
2023-04-13T09:55:02.525Z,96.20
2023-04-13T09:57:32.129Z,96.30
2023-04-13T10:00:01.908Z,96.30
2023-04-13T10:02:30.540Z,96.20
2023-04-13T10:04:58.800Z,96.30
2023-04-13T10:07:30.006Z,96.40
2023-04-13T10:09:59.156Z,96.40
2023-04-13T10:12:28.718Z,96.40
2023-04-13T10:15:05.206Z,96.40
2023-04-13T10:17:45.226Z,96.50
2023-04-13T10:20:13.851Z,96.50
2023-04-13T10:22:44.780Z,96.50
2023-04-13T10:25:29.624Z,96.50
2023-04-13T10:28:01.748Z,96.50
2023-04-13T10:30:29.761Z,96.40
2023-04-13T10:33:06.047Z,96.40
2023-04-13T10:35:38.490Z,96.50
2023-04-13T10:38:08.667Z,96.60
2023-04-13T10:40:48.275Z,96.50
2023-04-13T10:43:29.546Z,95.90
2023-04-13T10:46:14.928Z,95.80
2023-04-13T10:48:43.312Z,95.70
2023-04-13T10:51:11.277Z,95.60
2023-04-13T10:53:39.036Z,95.40
2023-04-13T10:56:17.787Z,95.40
2023-04-13T10:58:53.143Z,95.30
2023-04-13T11:01:21.737Z,95.30
2023-04-13T11:04:03.645Z,95.30
2023-04-13T11:06:37.725Z,95.40
2023-04-13T11:09:06.831Z,95.60
2023-04-13T11:11:37.652Z,95.70
2023-04-13T11:14:05.737Z,95.70
2023-04-13T11:16:33.569Z,95.70
2023-04-13T11:19:02.466Z,95.50
2023-04-13T11:21:31.644Z,95.50
2023-04-13T11:24:01.997Z,95.40
2023-04-13T11:26:34.434Z,95.40
2023-04-13T11:29:03.943Z,95.30
2023-04-13T11:31:39.016Z,95.10
2023-04-13T11:34:09.496Z,94.80
2023-04-13T11:36:38.821Z,95.00
2023-04-13T11:39:10.531Z,94.90
2023-04-13T11:41:41.293Z,94.90
2023-04-13T11:44:12.304Z,94.80
2023-04-13T11:46:40.249Z,94.80
2023-04-13T11:49:08.361Z,94.60
2023-04-13T11:51:37.022Z,94.60
2023-04-13T11:54:06.562Z,94.50
2023-04-13T11:56:34.480Z,94.60
2023-04-13T11:59:02.862Z,94.70
2023-04-13T12:01:34.535Z,94.80
2023-04-13T12:04:14.532Z,94.80
2023-04-13T12:06:46.136Z,94.60
2023-04-13T12:09:17.814Z,94.60
2023-04-13T12:12:08.412Z,94.60
2023-04-13T12:14:57.524Z,94.50
2023-04-13T12:17:39.688Z,94.40
2023-04-13T12:20:16.467Z,94.50
2023-04-13T12:22:54.838Z,94.60
2023-04-13T12:25:25.927Z,94.50
2023-04-13T12:27:54.624Z,94.30
2023-04-13T12:30:23.699Z,94.20
2023-04-13T12:32:54.909Z,94.10
2023-04-13T12:35:23.006Z,94.00
2023-04-13T12:37:52.354Z,93.50
2023-04-13T12:40:20.248Z,93.10
2023-04-13T12:42:48.628Z,93.10
2023-04-13T12:45:17.495Z,93.20
2023-04-13T12:47:45.353Z,93.10
2023-04-13T12:50:14.720Z,93.50
2023-04-13T12:52:44.315Z,93.70
2023-04-13T12:55:12.166Z,93.70
2023-04-13T12:57:40.430Z,93.70
2023-04-13T13:00:11.034Z,93.70
2023-04-13T13:02:39.354Z,93.80
2023-04-13T13:05:09.213Z,93.80
2023-04-13T13:07:38.428Z,93.90
2023-04-13T13:10:14.923Z,93.70
2023-04-13T13:12:54.031Z,93.70
2023-04-13T13:15:21.841Z,93.50
2023-04-13T13:17:49.697Z,93.60
2023-04-13T13:20:17.799Z,93.70
2023-04-13T13:22:47.476Z,93.80
2023-04-13T13:25:16.145Z,93.70
2023-04-13T13:30:15.316Z,93.70
2023-04-13T13:32:43.082Z,93.70
2023-04-13T13:35:11.622Z,93.30
2023-04-13T13:37:39.689Z,93.00
2023-04-13T13:40:13.017Z,92.40
2023-04-13T13:42:51.162Z,92.80
2023-04-13T13:45:20.031Z,92.70
2023-04-13T13:47:51.141Z,91.70
2023-04-13T13:50:20.188Z,92.10
2023-04-13T13:53:01.514Z,92.60
2023-04-13T13:55:32.721Z,92.60
2023-04-13T13:58:00.545Z,92.70
2023-04-13T14:00:28.325Z,92.60
2023-04-13T14:02:56.398Z,92.30
2023-04-13T14:05:24.394Z,92.10
2023-04-13T14:07:52.186Z,91.80
2023-04-13T14:10:20.381Z,91.50
2023-04-13T14:12:50.903Z,91.70
2023-04-13T14:15:19.012Z,91.70
2023-04-13T14:17:58.841Z,91.60
2023-04-13T14:20:35.590Z,91.80
2023-04-13T14:23:03.526Z,92.00
2023-04-13T14:25:31.342Z,91.90
2023-04-13T14:28:00.573Z,91.60
2023-04-13T14:30:28.642Z,91.50
2023-04-13T14:32:57.159Z,91.40
2023-04-13T14:35:25.066Z,90.70
2023-04-13T14:37:53.127Z,91.00
2023-04-13T14:40:22.927Z,90.70
2023-04-13T14:42:53.217Z,90.40
2023-04-13T14:45:22.303Z,89.20
2023-04-13T14:47:50.394Z,90.30
2023-04-13T14:50:18.453Z,90.40
2023-04-13T14:52:47.068Z,90.40
2023-04-13T14:55:16.262Z,90.50
2023-04-13T14:57:44.781Z,90.20
2023-04-13T15:00:21.094Z,88.80
2023-04-13T15:02:52.482Z,89.30
2023-04-13T15:05:21.056Z,89.30
2023-04-13T15:07:50.635Z,88.60
2023-04-13T15:10:18.949Z,88.50
2023-04-13T15:12:48.057Z,89.10
2023-04-13T15:15:15.893Z,88.70
2023-04-13T15:17:43.893Z,88.90
2023-04-13T15:20:13.435Z,88.80
2023-04-13T15:22:41.174Z,89.10
2023-04-13T15:25:09.502Z,89.20
2023-04-13T15:27:37.350Z,88.60
2023-04-13T15:30:05.887Z,88.80
2023-04-13T15:32:36.005Z,88.70
2023-04-13T15:35:03.968Z,87.80
2023-04-13T15:37:33.038Z,88.30
2023-04-13T15:40:01.378Z,88.70
2023-04-13T15:42:29.538Z,88.10
2023-04-13T15:44:57.312Z,87.40
2023-04-13T15:47:25.142Z,87.60
2023-04-13T15:49:52.922Z,87.60
2023-04-13T15:52:20.740Z,87.60
2023-04-13T15:54:49.941Z,87.60
2023-04-13T15:57:17.814Z,86.90
2023-04-13T15:59:45.557Z,86.70
2023-04-13T16:02:13.490Z,86.50
2023-04-13T16:04:41.639Z,86.20
2023-04-13T16:07:14.066Z,84.00
2023-04-13T16:09:43.555Z,85.30
2023-04-13T16:12:12.911Z,84.70
2023-04-13T16:14:44.649Z,82.80
2023-04-13T16:17:13.035Z,84.40
2023-04-13T16:19:40.848Z,84.10
2023-04-13T16:22:10.763Z,83.90
2023-04-13T16:24:38.665Z,84.40
2023-04-13T16:27:07.184Z,84.70
2023-04-13T16:29:36.492Z,84.30
2023-04-13T16:32:04.519Z,84.90
2023-04-13T16:34:32.284Z,84.90
2023-04-13T16:37:00.029Z,84.70
2023-04-13T16:39:27.765Z,84.90
2023-04-13T16:41:55.528Z,84.90
2023-04-13T16:44:23.359Z,84.60
2023-04-13T16:46:52.554Z,85.00
2023-04-13T16:49:20.336Z,85.10
2023-04-13T16:51:48.990Z,85.00
2023-04-13T16:54:17.992Z,85.00
2023-04-13T16:56:46.102Z,85.10
2023-04-13T16:59:14.039Z,85.20
2023-04-13T17:01:41.849Z,85.10
2023-04-13T17:04:11.927Z,85.10
2023-04-13T17:06:40.113Z,84.70
2023-04-13T17:09:09.781Z,85.00
2023-04-13T17:11:37.537Z,85.00
2023-04-13T17:14:05.317Z,85.00
2023-04-13T17:16:33.243Z,85.10
2023-04-13T17:19:01.570Z,85.00
2023-04-13T17:21:31.044Z,84.50
2023-04-13T17:23:58.813Z,84.90
2023-04-13T17:26:26.638Z,85.20
2023-04-13T17:28:54.402Z,85.10
2023-04-13T17:31:22.228Z,85.30
2023-04-13T17:33:51.122Z,84.70
2023-04-13T17:36:19.117Z,85.00
2023-04-13T17:38:48.222Z,85.10
2023-04-13T17:41:15.991Z,85.10
2023-04-13T17:43:43.736Z,85.30
2023-04-13T17:46:12.563Z,85.40
2023-04-13T17:48:40.778Z,85.40
2023-04-13T17:51:11.537Z,85.50
2023-04-13T17:53:39.473Z,85.40
2023-04-13T17:56:14.447Z,85.60
2023-04-13T17:58:42.202Z,85.80
2023-04-13T18:01:11.003Z,85.70
2023-04-13T18:03:39.398Z,85.60
2023-04-13T18:06:08.068Z,85.70
2023-04-13T18:08:35.903Z,85.50
2023-04-13T18:11:03.732Z,85.60
2023-04-13T18:13:34.281Z,85.70
2023-04-13T18:16:02.203Z,85.40
2023-04-13T18:18:30.170Z,85.60
2023-04-13T18:20:57.915Z,85.70
2023-04-13T18:23:25.799Z,85.80
2023-04-13T18:25:53.591Z,85.70
2023-04-13T18:28:21.409Z,85.70
2023-04-13T18:30:50.522Z,85.60
2023-04-13T18:33:18.513Z,85.60
2023-04-13T18:35:46.581Z,85.60
2023-04-13T18:38:14.474Z,85.60
2023-04-13T18:40:42.279Z,85.50
2023-04-13T18:43:10.113Z,85.50
2023-04-13T18:45:37.964Z,85.50
2023-04-13T18:48:09.392Z,85.50
2023-04-13T18:50:37.487Z,85.60
2023-04-13T18:53:05.995Z,85.50
2023-04-13T18:55:33.786Z,85.50
2023-04-13T18:58:01.587Z,86.80
2023-04-13T19:00:29.328Z,86.80
2023-04-13T19:02:57.805Z,86.90
2023-04-13T19:05:27.760Z,86.90
2023-04-13T19:07:58.525Z,86.80
2023-04-13T19:10:27.733Z,86.90
2023-04-13T19:12:56.311Z,86.90
2023-04-13T19:15:24.483Z,86.90
2023-04-13T19:17:52.894Z,87.00
2023-04-13T19:20:23.063Z,86.90
2023-04-13T19:22:52.608Z,87.00
2023-04-13T19:25:20.520Z,87.00
2023-04-13T19:27:49.902Z,87.00
2023-04-13T19:30:18.659Z,87.00
2023-04-13T19:32:48.442Z,87.10
2023-04-13T19:35:17.324Z,87.20
2023-04-13T19:37:45.116Z,87.30
2023-04-13T19:40:15.053Z,87.30
2023-04-13T19:42:43.815Z,87.60
2023-04-13T19:45:12.746Z,87.70
2023-04-13T19:47:42.124Z,87.90
2023-04-13T19:50:12.023Z,88.10
2023-04-13T19:52:41.278Z,88.20
2023-04-13T19:55:10.698Z,88.20
2023-04-13T19:57:42.674Z,88.20
2023-04-13T20:00:18.865Z,88.20
2023-04-13T20:02:47.818Z,88.20
2023-04-13T20:05:16.178Z,88.20
2023-04-13T20:07:44.015Z,88.20
2023-04-13T20:10:12.981Z,88.30
2023-04-13T20:12:42.053Z,88.30
2023-04-13T20:15:10.187Z,88.30
2023-04-13T20:17:37.995Z,88.40
2023-04-13T20:20:08.076Z,88.50
2023-04-13T20:22:35.977Z,88.60
2023-04-13T20:25:04.396Z,88.60
2023-04-13T20:27:34.128Z,88.80
2023-04-13T20:30:03.205Z,88.60
2023-04-13T20:32:30.974Z,88.80
2023-04-13T20:34:59.132Z,89.00
2023-04-13T20:37:27.177Z,89.10
2023-04-13T20:39:55.151Z,89.20
2023-04-13T20:42:23.437Z,89.30
2023-04-13T20:44:57.111Z,89.30
2023-04-13T20:47:28.265Z,89.40
2023-04-13T20:49:57.381Z,89.60
2023-04-13T20:52:25.793Z,89.60
2023-04-13T20:54:55.327Z,89.70
2023-04-13T20:57:23.390Z,89.70
2023-04-13T20:59:52.022Z,90.10
2023-04-13T21:02:19.924Z,89.70
2023-04-13T21:04:49.083Z,89.80
2023-04-13T21:07:16.938Z,89.70
2023-04-13T21:09:44.674Z,89.80
2023-04-13T21:12:12.420Z,89.90
2023-04-13T21:14:40.161Z,90.00
2023-04-13T21:17:08.000Z,90.00
2023-04-13T21:19:37.638Z,90.00
2023-04-13T21:22:07.171Z,90.00
2023-04-13T21:24:34.978Z,90.00
2023-04-13T21:27:02.959Z,90.00
2023-04-13T21:29:30.687Z,90.00
2023-04-13T21:31:58.971Z,90.00
2023-04-13T21:34:27.215Z,90.00
2023-04-13T21:36:55.188Z,90.00
2023-04-13T21:39:24.372Z,89.90
2023-04-13T21:41:52.115Z,89.90
2023-04-13T21:44:29.237Z,90.00
2023-04-13T21:46:58.260Z,89.90
2023-04-13T21:49:26.323Z,90.00
2023-04-13T21:51:54.082Z,90.00
2023-04-13T21:54:21.828Z,90.00
2023-04-13T21:56:50.922Z,90.00
2023-04-13T21:59:18.724Z,89.90
2023-04-13T22:01:46.866Z,89.50
2023-04-13T22:04:15.029Z,89.40
2023-04-13T22:06:42.825Z,89.30
2023-04-13T22:09:12.120Z,89.20
2023-04-13T22:11:40.834Z,89.20
2023-04-13T22:14:10.052Z,89.00
2023-04-13T22:16:37.776Z,88.90
2023-04-13T22:19:05.539Z,89.00
2023-04-13T22:21:35.762Z,89.00
2023-04-13T22:24:03.559Z,89.10
2023-04-13T22:26:31.369Z,89.20
2023-04-13T22:28:59.502Z,89.10
2023-04-13T22:31:28.852Z,89.20
2023-04-13T22:33:57.083Z,89.30
2023-04-13T22:36:24.810Z,89.20
2023-04-13T22:38:52.699Z,89.30
2023-04-13T22:41:20.664Z,90.00
2023-04-13T22:43:48.393Z,89.40
2023-04-13T22:46:16.380Z,89.50
2023-04-13T22:48:45.528Z,89.50
2023-04-13T22:51:13.292Z,89.60
2023-04-13T22:53:41.047Z,89.50
2023-04-13T22:56:08.920Z,89.80
2023-04-13T22:58:36.653Z,89.90
2023-04-13T23:01:04.541Z,89.90
2023-04-13T23:03:32.441Z,89.90
2023-04-13T23:06:01.722Z,89.90
2023-04-13T23:08:30.123Z,89.90
2023-04-13T23:10:57.895Z,90.00
2023-04-13T23:13:26.094Z,90.00
2023-04-13T23:16:00.454Z,90.00
2023-04-13T23:18:28.349Z,89.90
2023-04-13T23:20:56.081Z,89.80
2023-04-13T23:23:25.298Z,89.90
2023-04-13T23:25:53.099Z,90.00
2023-04-13T23:28:20.821Z,90.00
2023-04-13T23:30:48.564Z,89.90
2023-04-13T23:33:16.305Z,89.80
2023-04-13T23:35:51.839Z,89.80
2023-04-13T23:38:19.594Z,89.90
2023-04-13T23:40:48.671Z,89.90
2023-04-13T23:43:16.441Z,90.00
2023-04-13T23:45:44.336Z,90.00
2023-04-13T23:48:12.163Z,90.00
2023-04-13T23:50:39.891Z,90.10
2023-04-13T23:53:07.633Z,90.00
2023-04-13T23:55:35.383Z,90.10
2023-04-13T23:58:04.516Z,90.10
